sensor_id;sensor_type;location;lat;lon;timestamp;P1;durP1;ratioP1;P2;durP2;ratioP2
17636;SDS011;8937;51.236;6.794;2022-11-20T00:01:52;5.93;;;4.50;;
17636;SDS011;8937;51.236;6.794;2022-11-20T00:10:15;5.63;;;4.00;;
17636;SDS011;8937;51.236;6.794;2022-11-20T00:18:37;6.57;;;4.93;;
17636;SDS011;8937;51.236;6.794;2022-11-20T00:26:59;5.70;;;4.40;;
17636;SDS011;8937;51.236;6.794;2022-11-20T00:35:21;5.83;;;4.67;;
17636;SDS011;8937;51.236;6.794;2022-11-20T00:43:43;8.37;;;4.73;;
17636;SDS011;8937;51.236;6.794;2022-11-20T00:52:05;6.43;;;4.77;;
17636;SDS011;8937;51.236;6.794;2022-11-20T01:00:27;6.73;;;5.00;;
17636;SDS011;8937;51.236;6.794;2022-11-20T01:08:49;7.20;;;4.87;;
17636;SDS011;8937;51.236;6.794;2022-11-20T01:17:12;6.57;;;5.20;;
17636;SDS011;8937;51.236;6.794;2022-11-20T01:25:33;7.47;;;5.40;;
17636;SDS011;8937;51.236;6.794;2022-11-20T01:33:57;7.10;;;5.27;;
17636;SDS011;8937;51.236;6.794;2022-11-20T01:42:19;8.70;;;5.77;;
17636;SDS011;8937;51.236;6.794;2022-11-20T01:50:59;7.60;;;5.37;;
17636;SDS011;8937;51.236;6.794;2022-11-20T01:59:21;5.30;;;4.53;;
17636;SDS011;8937;51.236;6.794;2022-11-20T02:07:45;6.90;;;5.10;;
17636;SDS011;8937;51.236;6.794;2022-11-20T02:16:08;8.93;;;5.80;;
17636;SDS011;8937;51.236;6.794;2022-11-20T02:24:31;9.13;;;5.80;;
17636;SDS011;8937;51.236;6.794;2022-11-20T02:32:52;9.10;;;5.90;;
17636;SDS011;8937;51.236;6.794;2022-11-20T02:41:15;9.20;;;5.67;;
17636;SDS011;8937;51.236;6.794;2022-11-20T02:49:36;7.63;;;5.20;;
17636;SDS011;8937;51.236;6.794;2022-11-20T02:58:00;7.50;;;5.47;;
17636;SDS011;8937;51.236;6.794;2022-11-20T03:06:21;8.17;;;5.70;;
17636;SDS011;8937;51.236;6.794;2022-11-20T03:14:44;8.17;;;5.50;;
17636;SDS011;8937;51.236;6.794;2022-11-20T03:23:05;6.20;;;4.97;;
17636;SDS011;8937;51.236;6.794;2022-11-20T03:31:28;9.00;;;5.70;;
17636;SDS011;8937;51.236;6.794;2022-11-20T03:39:50;7.73;;;5.13;;
17636;SDS011;8937;51.236;6.794;2022-11-20T03:48:13;7.13;;;5.43;;
17636;SDS011;8937;51.236;6.794;2022-11-20T03:56:35;6.03;;;4.47;;
17636;SDS011;8937;51.236;6.794;2022-11-20T04:04:58;7.30;;;5.50;;
17636;SDS011;8937;51.236;6.794;2022-11-20T04:13:19;7.90;;;5.27;;
17636;SDS011;8937;51.236;6.794;2022-11-20T04:21:42;7.70;;;4.83;;
17636;SDS011;8937;51.236;6.794;2022-11-20T04:30:04;6.80;;;4.73;;
17636;SDS011;8937;51.236;6.794;2022-11-20T04:38:27;7.87;;;5.23;;
17636;SDS011;8937;51.236;6.794;2022-11-20T04:46:49;5.93;;;5.13;;
17636;SDS011;8937;51.236;6.794;2022-11-20T04:55:11;7.00;;;4.83;;
17636;SDS011;8937;51.236;6.794;2022-11-20T05:03:33;6.37;;;5.07;;
17636;SDS011;8937;51.236;6.794;2022-11-20T05:11:56;6.80;;;4.97;;
17636;SDS011;8937;51.236;6.794;2022-11-20T05:20:18;9.83;;;5.73;;
17636;SDS011;8937;51.236;6.794;2022-11-20T05:28:41;9.40;;;5.63;;
17636;SDS011;8937;51.236;6.794;2022-11-20T05:37:02;11.50;;;6.33;;
17636;SDS011;8937;51.236;6.794;2022-11-20T05:45:25;8.50;;;5.57;;
17636;SDS011;8937;51.236;6.794;2022-11-20T05:53:46;7.03;;;5.53;;
17636;SDS011;8937;51.236;6.794;2022-11-20T06:02:09;6.20;;;5.00;;
17636;SDS011;8937;51.236;6.794;2022-11-20T06:10:30;7.33;;;5.13;;
17636;SDS011;8937;51.236;6.794;2022-11-20T06:18:53;6.87;;;5.33;;
17636;SDS011;8937;51.236;6.794;2022-11-20T06:27:15;5.57;;;4.70;;
17636;SDS011;8937;51.236;6.794;2022-11-20T06:35:38;6.53;;;5.10;;
17636;SDS011;8937;51.236;6.794;2022-11-20T06:43:59;7.17;;;4.90;;
17636;SDS011;8937;51.236;6.794;2022-11-20T06:52:22;6.40;;;5.17;;
17636;SDS011;8937;51.236;6.794;2022-11-20T07:00:43;7.97;;;5.23;;
17636;SDS011;8937;51.236;6.794;2022-11-20T07:09:06;9.27;;;5.10;;
17636;SDS011;8937;51.236;6.794;2022-11-20T07:17:28;8.47;;;4.90;;
17636;SDS011;8937;51.236;6.794;2022-11-20T07:25:50;9.27;;;5.67;;
17636;SDS011;8937;51.236;6.794;2022-11-20T07:34:12;7.27;;;5.03;;
17636;SDS011;8937;51.236;6.794;2022-11-20T07:42:35;8.53;;;4.83;;
17636;SDS011;8937;51.236;6.794;2022-11-20T07:50:56;5.60;;;4.03;;
17636;SDS011;8937;51.236;6.794;2022-11-20T07:59:19;5.07;;;3.80;;
17636;SDS011;8937;51.236;6.794;2022-11-20T08:07:41;5.53;;;4.67;;
17636;SDS011;8937;51.236;6.794;2022-11-20T08:16:05;5.33;;;4.10;;
17636;SDS011;8937;51.236;6.794;2022-11-20T08:24:26;5.13;;;4.30;;
17636;SDS011;8937;51.236;6.794;2022-11-20T08:32:49;6.93;;;4.83;;
17636;SDS011;8937;51.236;6.794;2022-11-20T08:41:10;6.13;;;4.87;;
17636;SDS011;8937;51.236;6.794;2022-11-20T08:49:49;5.70;;;4.53;;
17636;SDS011;8937;51.236;6.794;2022-11-20T08:58:10;7.00;;;5.13;;
17636;SDS011;8937;51.236;6.794;2022-11-20T09:06:33;6.33;;;4.53;;
17636;SDS011;8937;51.236;6.794;2022-11-20T09:14:54;6.33;;;4.83;;
17636;SDS011;8937;51.236;6.794;2022-11-20T09:23:17;8.80;;;6.33;;
17636;SDS011;8937;51.236;6.794;2022-11-20T09:31:38;7.60;;;5.40;;
17636;SDS011;8937;51.236;6.794;2022-11-20T09:40:01;8.60;;;5.67;;
17636;SDS011;8937;51.236;6.794;2022-11-20T09:48:30;10.30;;;5.80;;
17636;SDS011;8937;51.236;6.794;2022-11-20T09:56:55;7.57;;;5.23;;
17636;SDS011;8937;51.236;6.794;2022-11-20T10:05:19;8.90;;;5.73;;
17636;SDS011;8937;51.236;6.794;2022-11-20T10:13:45;8.50;;;5.63;;
17636;SDS011;8937;51.236;6.794;2022-11-20T10:22:11;7.27;;;5.60;;
17636;SDS011;8937;51.236;6.794;2022-11-20T10:30:37;6.97;;;5.33;;
17636;SDS011;8937;51.236;6.794;2022-11-20T10:39:04;6.17;;;5.20;;
17636;SDS011;8937;51.236;6.794;2022-11-20T10:47:30;6.97;;;4.97;;
17636;SDS011;8937;51.236;6.794;2022-11-20T10:55:53;8.13;;;5.60;;
17636;SDS011;8937;51.236;6.794;2022-11-20T11:04:23;9.37;;;5.40;;
17636;SDS011;8937;51.236;6.794;2022-11-20T11:12:48;8.10;;;5.50;;
17636;SDS011;8937;51.236;6.794;2022-11-20T11:21:11;9.37;;;5.13;;
17636;SDS011;8937;51.236;6.794;2022-11-20T11:29:32;9.20;;;5.70;;
17636;SDS011;8937;51.236;6.794;2022-11-20T11:38:02;8.13;;;5.50;;
17636;SDS011;8937;51.236;6.794;2022-11-20T11:46:28;11.33;;;6.60;;
17636;SDS011;8937;51.236;6.794;2022-11-20T11:54:52;8.53;;;6.10;;
17636;SDS011;8937;51.236;6.794;2022-11-20T12:03:15;8.13;;;5.87;;
17636;SDS011;8937;51.236;6.794;2022-11-20T12:11:43;6.37;;;5.10;;
17636;SDS011;8937;51.236;6.794;2022-11-20T12:20:10;6.57;;;5.40;;
17636;SDS011;8937;51.236;6.794;2022-11-20T12:28:39;7.17;;;5.20;;
17636;SDS011;8937;51.236;6.794;2022-11-20T12:37:07;9.40;;;6.17;;
17636;SDS011;8937;51.236;6.794;2022-11-20T12:54:20;7.60;;;5.83;;
17636;SDS011;8937;51.236;6.794;2022-11-20T13:11:32;10.53;;;6.60;;
17636;SDS011;8937;51.236;6.794;2022-11-20T13:19:55;9.77;;;6.03;;
17636;SDS011;8937;51.236;6.794;2022-11-20T13:28:27;10.73;;;6.67;;
17636;SDS011;8937;51.236;6.794;2022-11-20T13:36:50;11.83;;;7.50;;
17636;SDS011;8937;51.236;6.794;2022-11-20T13:45:22;12.90;;;7.90;;
17636;SDS011;8937;51.236;6.794;2022-11-20T13:53:48;11.20;;;7.17;;
17636;SDS011;8937;51.236;6.794;2022-11-20T14:02:15;11.13;;;6.87;;
17636;SDS011;8937;51.236;6.794;2022-11-20T14:10:37;10.07;;;6.57;;
17636;SDS011;8937;51.236;6.794;2022-11-20T14:27:38;11.97;;;6.30;;
17636;SDS011;8937;51.236;6.794;2022-11-20T14:36:00;12.27;;;6.70;;
17636;SDS011;8937;51.236;6.794;2022-11-20T14:44:23;11.90;;;7.03;;
17636;SDS011;8937;51.236;6.794;2022-11-20T14:52:49;10.33;;;6.20;;
17636;SDS011;8937;51.236;6.794;2022-11-20T15:01:13;14.70;;;6.47;;
17636;SDS011;8937;51.236;6.794;2022-11-20T15:09:34;9.87;;;6.70;;
17636;SDS011;8937;51.236;6.794;2022-11-20T15:17:57;11.33;;;6.60;;
17636;SDS011;8937;51.236;6.794;2022-11-20T15:26:20;9.40;;;6.73;;
17636;SDS011;8937;51.236;6.794;2022-11-20T15:34:44;8.87;;;5.70;;
17636;SDS011;8937;51.236;6.794;2022-11-20T15:43:05;10.47;;;6.37;;
17636;SDS011;8937;51.236;6.794;2022-11-20T15:51:29;8.87;;;5.80;;
17636;SDS011;8937;51.236;6.794;2022-11-20T15:59:51;10.57;;;6.20;;
17636;SDS011;8937;51.236;6.794;2022-11-20T16:08:14;6.70;;;5.17;;
17636;SDS011;8937;51.236;6.794;2022-11-20T16:16:36;7.30;;;4.97;;
17636;SDS011;8937;51.236;6.794;2022-11-20T16:25:01;7.33;;;5.47;;
17636;SDS011;8937;51.236;6.794;2022-11-20T16:33:24;9.30;;;5.67;;
17636;SDS011;8937;51.236;6.794;2022-11-20T16:41:46;9.07;;;5.83;;
17636;SDS011;8937;51.236;6.794;2022-11-20T16:50:08;8.70;;;5.47;;
17636;SDS011;8937;51.236;6.794;2022-11-20T16:58:31;9.90;;;5.67;;
17636;SDS011;8937;51.236;6.794;2022-11-20T17:06:52;11.63;;;5.47;;
17636;SDS011;8937;51.236;6.794;2022-11-20T17:15:16;7.77;;;5.10;;
17636;SDS011;8937;51.236;6.794;2022-11-20T17:23:38;7.00;;;4.70;;
17636;SDS011;8937;51.236;6.794;2022-11-20T17:32:01;7.07;;;4.80;;
17636;SDS011;8937;51.236;6.794;2022-11-20T17:40:22;5.90;;;4.23;;
17636;SDS011;8937;51.236;6.794;2022-11-20T17:48:46;5.83;;;3.73;;
17636;SDS011;8937;51.236;6.794;2022-11-20T17:57:08;4.53;;;3.40;;
17636;SDS011;8937;51.236;6.794;2022-11-20T18:05:48;5.17;;;3.60;;
17636;SDS011;8937;51.236;6.794;2022-11-20T18:14:11;3.83;;;3.17;;
17636;SDS011;8937;51.236;6.794;2022-11-20T18:22:54;5.10;;;2.83;;
17636;SDS011;8937;51.236;6.794;2022-11-20T18:31:16;3.00;;;2.70;;
17636;SDS011;8937;51.236;6.794;2022-11-20T18:39:39;4.67;;;3.20;;
17636;SDS011;8937;51.236;6.794;2022-11-20T18:48:00;2.80;;;2.60;;
17636;SDS011;8937;51.236;6.794;2022-11-20T18:56:23;3.43;;;2.30;;
17636;SDS011;8937;51.236;6.794;2022-11-20T19:04:44;2.27;;;2.13;;
17636;SDS011;8937;51.236;6.794;2022-11-20T19:13:07;2.27;;;2.07;;
17636;SDS011;8937;51.236;6.794;2022-11-20T19:21:28;2.23;;;2.03;;
17636;SDS011;8937;51.236;6.794;2022-11-20T19:29:51;5.17;;;2.23;;
17636;SDS011;8937;51.236;6.794;2022-11-20T19:38:16;4.50;;;1.67;;
17636;SDS011;8937;51.236;6.794;2022-11-20T19:46:39;3.67;;;1.93;;
17636;SDS011;8937;51.236;6.794;2022-11-20T19:55:01;3.77;;;2.60;;
17636;SDS011;8937;51.236;6.794;2022-11-20T20:03:24;5.97;;;2.23;;
17636;SDS011;8937;51.236;6.794;2022-11-20T20:11:45;3.73;;;1.90;;
17636;SDS011;8937;51.236;6.794;2022-11-20T20:20:09;3.70;;;2.37;;
17636;SDS011;8937;51.236;6.794;2022-11-20T20:28:31;4.60;;;2.10;;
17636;SDS011;8937;51.236;6.794;2022-11-20T20:36:54;10.83;;;3.00;;
17636;SDS011;8937;51.236;6.794;2022-11-20T20:45:15;6.60;;;2.33;;
17636;SDS011;8937;51.236;6.794;2022-11-20T20:53:38;8.67;;;3.20;;
17636;SDS011;8937;51.236;6.794;2022-11-20T21:01:59;6.60;;;3.37;;
17636;SDS011;8937;51.236;6.794;2022-11-20T21:10:22;6.40;;;2.87;;
17636;SDS011;8937;51.236;6.794;2022-11-20T21:18:44;6.17;;;3.23;;
17636;SDS011;8937;51.236;6.794;2022-11-20T21:27:07;11.57;;;3.67;;
17636;SDS011;8937;51.236;6.794;2022-11-20T21:35:28;7.20;;;3.30;;
17636;SDS011;8937;51.236;6.794;2022-11-20T21:43:51;5.40;;;3.30;;
17636;SDS011;8937;51.236;6.794;2022-11-20T21:52:12;6.70;;;3.30;;
17636;SDS011;8937;51.236;6.794;2022-11-20T22:00:35;9.17;;;3.10;;
17636;SDS011;8937;51.236;6.794;2022-11-20T22:08:56;5.33;;;2.47;;
17636;SDS011;8937;51.236;6.794;2022-11-20T22:17:19;10.37;;;2.13;;
17636;SDS011;8937;51.236;6.794;2022-11-20T22:26:02;3.23;;;2.00;;
17636;SDS011;8937;51.236;6.794;2022-11-20T22:34:25;7.53;;;2.30;;
17636;SDS011;8937;51.236;6.794;2022-11-20T22:42:46;4.47;;;2.23;;
17636;SDS011;8937;51.236;6.794;2022-11-20T22:51:09;5.37;;;2.10;;
17636;SDS011;8937;51.236;6.794;2022-11-20T22:59:31;3.97;;;1.80;;
17636;SDS011;8937;51.236;6.794;2022-11-20T23:07:54;6.97;;;1.97;;
17636;SDS011;8937;51.236;6.794;2022-11-20T23:16:16;5.40;;;2.27;;
17636;SDS011;8937;51.236;6.794;2022-11-20T23:24:40;5.00;;;1.90;;
17636;SDS011;8937;51.236;6.794;2022-11-20T23:33:01;12.20;;;7.20;;
17636;SDS011;8937;51.236;6.794;2022-11-20T23:41:25;12.87;;;8.37;;
17636;SDS011;8937;51.236;6.794;2022-11-20T23:49:46;12.00;;;8.50;;
17636;SDS011;8937;51.236;6.794;2022-11-20T23:58:09;13.37;;;7.43;;
